Decoded Metar for KAGC (PITTSBURGH/ALLEG in PA, USA) (IATA:AGC) | Meteo·Mobile Aviation Weather
aviador You're here:

KAGC Decoded Metar

PITTSBURGH/ALLEG in PA, USA
Report Time2018-09-23 11:53:00
UTC Time2018-09-23 12:57:53
Flight Rules vfr VFR
Wind010° at 03 kt
W.Decomp.*RWY 31: 1.1 kt HW 2.8 kt RCW
RWY 10: 0.5 kt HW 3 kt LCW
W.Rank010° ranks 33
Current wind is below 010° avg. (4.5)
Visibility9999 m
Phenomena:N/A
Clouds:N/A
CeilingNone
Temp12°C (ISA -0)
Dew Point12°C (100% RH)
AAT11.5°C
QNH1021 hPa
Density Alt1,145 ft
Elevation1,276 ft
Report Wrong Elevation
Raw Report
KAGC 231153Z 01003KT 10SM CLR 12/12 A3016 RMK AO2 SLP218 T01220117
10128 20117 53003=

Extra information for KAGC:More info

Metar Taf Metar & Taf Last 4 Metars F.Rules Stats Wind Profile Meteogram Temp Stats Airport Information Weather charts Add Link Nearby VenuesMetar ALERT Operation Metar Decoded Social comments

AIRNAV info for KAGC